KMDH Weather | Aviation | SIU

Home
Southern Illinois University

CONTACT

SIU.EDU

Aviation - Weather

College of Applied Sciences and Arts

KMDH Weather

NOTICE: Although all weather products are taken from the National Weather Service, this data should be used only as a supplement to a formal weather briefing.

Last Updated: Thursday, February 21st, 2019, 6:18 am
Information on this page is updated every 5 minutes.


METARS

KMDH 211152Z AUTO 16003KT 9SM CLR M03/M03 A3017 RMK AO2 SLP219 I1000 I6000

KMDH 211052Z AUTO 15003KT 9SM CLR M02/M03 A3015 RMK AO2 SLP213 T10221028

KMDH 210952Z AUTO 00000KT 10SM CLR M01/M02 A3013 RMK AO2 SLP203 T10111022 $

KMWA 211215Z AUTO 00000KT 5SM BR CLR M02/M03 A3019 RMK AO2 T10231026

KMWA 211155Z AUTO 00000KT 7SM CLR M02/M02 A3019 RMK AO2 T10191021 10023 21031

KMWA 211135Z AUTO 00000KT 5SM BR CLR M03/M03 A3018 RMK AO2 T10261028

KMWA 211115Z AUTO 00000KT 7SM CLR M03/M03 A3017 RMK AO2 T10261028

KMWA 211055Z AUTO 00000KT 5SM BR CLR M02/M02 A3017 RMK AO2 T10211021

KMWA 211035Z AUTO 00000KT 7SM CLR M02/M02 A3015 RMK AO2 T10171019

KMWA 211015Z AUTO 00000KT 5SM BR CLR M02/M02 A3014 RMK AO2 T10161016

KMWA 210955Z AUTO 00000KT 7SM CLR M02/M02 A3013 RMK AO2 T10201022

KMWA 210935Z AUTO 00000KT 7SM CLR M02/M02 A3014 RMK AO2 T10211025

KCGI 211153Z AUTO 00000KT 10SM CLR 00/M02 A3016 RMK AO2 SLP216 T00001017 10028

KCGI 211053Z AUTO 10003KT 9SM CLR 00/M02 A3015 RMK AO2 SLP212 T00001017

KCGI 210953Z AUTO 00000KT 10SM CLR 00/M01 A3012 RMK AO2 SLP202 T00001011

KSAR 211155Z AUTO 00000KT 10SM CLR M02/M02 A3018 RMK AO2 70005 T10211021 10021

KSAR 211135Z AUTO 00000KT 10SM CLR M02/M02 A3016 RMK AO2 T10201020

KSAR 211115Z AUTO 00000KT 10SM CLR M02/M02 A3016 RMK AO2 T10211021

KSAR 211055Z AUTO 00000KT 10SM CLR M01/M01 A3015 RMK AO2 T10131013

KSAR 211035Z AUTO 00000KT 10SM CLR M02/M02 A3014 RMK AO2 T10161016

KSAR 211015Z AUTO 00000KT 10SM CLR M01/M01 A3013 RMK AO2 T10101010

KSAR 210955Z AUTO 00000KT 10SM CLR 00/00 A3013 RMK AO2 T10051005

KSAR 210935Z AUTO 00000KT 10SM CLR 00/M01 A3013 RMK AO2 T10011006

KFAM 211156Z AUTO 00000KT 10SM CLR M02/M03 A3014 RMK AO2 SLP213 70001 T10221033

KFAM 211056Z AUTO 30004KT 10SM CLR M02/M03 A3012 RMK AO2 SLP205 T10171028 FZRANO

KFAM 210956Z AUTO 00000KT 10SM CLR M01/M03 A3011 RMK AO2 SLP201 T10111028 FZRANO

KMVN 211156Z AUTO 00000KT 5SM BR CLR M04/M04 A3017 RMK AO2 SLP221 T10391044

KMVN 211056Z AUTO 00000KT 3SM BR CLR M03/M04 A3014 RMK AO2 SLP211 T10331039

KMVN 210956Z AUTO 00000KT 7SM CLR M03/M03 A3012 RMK AO2 SLP203 T10281033 FZRANO

KHSB 211215Z AUTO 00000KT 7SM CLR M01/M01 A3020 RMK AO2 T10141014

KHSB 211155Z AUTO 00000KT 5SM BR CLR M02/M02 A3019 RMK AO2 70002 T10201020 11001

KHSB 211135Z AUTO 00000KT 5SM BR CLR M02/M02 A3018 RMK AO2 T10201020

KCIR 211215Z AUTO 00000KT 10SM CLR 00/00 A3018 RMK AO2 T00000000

KCIR 211155Z AUTO 00000KT 10SM CLR 00/00 A3017 RMK AO2 T00000000 10024 21003

KCIR 211135Z AUTO 00000KT 10SM CLR 00/00 A3018 RMK AO2 T00000000

KPAH 211153Z 07003KT 8SM CLR 00/M02 A3017 RMK AO2 SLP217 70005 T00001017 10039

KFAM 211156Z AUTO 00000KT 10SM CLR M02/M03 A3014 RMK AO2 SLP213 70001 T10221033

KBLV 211156Z AUTO 00000KT 8SM CLR M03/M04 A3015 RMK AO2 SLP217 T10281039 10024

KVIH 211153Z AUTO 19004KT 6SM BR CLR M04/M06 A3015 RMK AO2 PRESRR SLP220

KENL 211215Z AUTO 00000KT 5SM BR CLR M01/M01 A3017 RMK AO2 T10151015

KENL 211155Z AUTO 00000KT 5SM BR CLR M01/M01 A3016 RMK AO2 70007 T10151015 10018

KENL 211135Z AUTO 00000KT 7SM CLR M01/M01 A3014 RMK AO2 T10101011

KMTO 211153Z AUTO 27004KT 9SM CLR M01/M02 A3012 RMK AO2 SLP204 T10111022 10017

KFWC 211155Z AUTO 00000KT 4SM BR CLR M02/M02 A3017 RMK AO1 70001 T10231023 10020

KFWC 211135Z AUTO 00000KT 4SM BR CLR M02/M02 A3016 RMK AO1 T10231023

KCUL 211157Z AUTO 00000KT 1/2SM FZFG VV005 M02/M02 A3018 RMK AO2

KEVV 211154Z 00000KT 8SM CLR M02/M02 A3018 RMK AO2 SLP224 70016 T10171017 10044

KCEY 211215Z AUTO 02006KT 10SM CLR 01/01 A3017 RMK AO1

KCEY 211155Z AUTO 02004KT 10SM CLR 01/01 A3018 RMK AO1

KCEY 211135Z AUTO 01005KT 8SM CLR 01/01 A3016 RMK AO1

KHOP 211214Z AUTO 36003KT 1/2SM R23/2000V4000FT FG FEW001 FEW008 FEW022 02/02

KHOP 211200Z AUTO 33003KT 3/8SM R23/1800V3000FT FG FEW001 SCT008 SCT012 BKN022

KHOP 211156Z AUTO 00000KT 5/8SM R23/2200V5500FT BR SCT001 BKN022 02/02 A3017 RMK

KHOP 211154Z AUTO 00000KT 5/8SM R23/2200V5500FT BR SCT001 BKN022 02/02 A3017 RMK

KHOP 211149Z AUTO 00000KT 3/4SM R23/3000V5500FT BR FEW002 OVC022 02/02 A3017 RMK

KHOP 211148Z AUTO 00000KT 5/8SM R23/3000V5500FT BR FEW002 OVC022 02/02 A3017 RMK

KHOP 211143Z AUTO 00000KT 1/2SM R23/2400V3500FT FG SCT002 OVC022 03/03 A3017 RMK

KHOP 211131Z AUTO 00000KT 3/8SM R23/2400V3000FT FG SCT002 OVC022 03/03 A3016 RMK

KHOP 211123Z AUTO 00000KT 5/8SM R23/2600V6000FT BR SCT003 BKN022 03/03 A3015 RMK

KHOP 211122Z AUTO 00000KT 3/4SM R23/3000V6000FT BR SCT003 BKN022 03/03 A3015 RMK

KHOP 211121Z AUTO 00000KT 1SM R23/3000VP6000FT BR SCT003 BKN022 03/03 A3015 RMK

KMKL 211153Z AUTO 00000KT 1/2SM FZFG VV002 M01/M02 A3016 RMK AO2 SLP215 70013

KMKL 211131Z AUTO 00000KT 1/2SM FZFG VV002 M01/M01 A3016 RMK AO2 T10111011

KARG 211156Z AUTO 35004KT 10SM CLR 01/00 A3019 RMK AO2 SLP226 7//// T00110000

KJBR 211153Z AUTO 03005KT 10SM CLR 04/02 A3017 RMK AO2 PRESRR SLP218 T00390022

KALN 211155Z AUTO 23004KT 7SM CLR M02/M02 A3015 RMK AO2 T10161016 10009 21027

KALN 211135Z AUTO 18003KT 10SM CLR M02/M03 A3014 RMK AO2 T10251029

KALN 211155Z AUTO 23004KT 7SM CLR M02/M02 A3015 RMK AO2 T10161016 10009 21027

KALN 211135Z AUTO 18003KT 10SM CLR M02/M03 A3014 RMK AO2 T10251029

KCOU 211154Z AUTO 33004KT 7SM CLR M01/M03 A3013 RMK AO2 SLP209 T10111028 10000

KAJG 211155Z AUTO 00000KT 7SM CLR M01/M01 A3016 RMK AO2 T10111014 10025 21011

KAJG 211135Z AUTO 00000KT 10SM CLR 00/00 A3016 RMK AO2 T10021005

KM30 211155Z AUTO 00000KT 5SM BR CLR M01/M01 A3019 RMK AO2 70002 T10071010 10012

KM30 211135Z AUTO 00000KT 5SM BR CLR M01/M01 A3019 RMK AO2 T10061009

KDEC 211154Z 27004KT 9SM CLR M01/M04 A3012 RMK AO2 SLP204 70002 T10111039 10011

KIJX 211135Z AUTO 27008KT 10SM CLR 00/M04 A3012 RMK AO2 T10041036


TAFS

KEVV 211120Z 2112/2212 00000KT P6SM SCT250

        TEMPO 2112/2114 3SM BR

        FM211500 04005KT P6SM SCT100 BKN250

        FM212100 05005KT P6SM SCT050 BKN100

        FM220900 05008KT P6SM VCSH SCT025 BKN050


Winds Aloft



Pilot Reports

No pilot reports found for area.



Area Forecast



Significant Weather

WAUS45 KKCI 210845 SLCZ WA 210845 AIRMET ZULU UPDT 1 FOR ICE AND FRZLVL VALID UNTIL 211500 AIRMET ICE...ID MT WY NV UT WA OR CA FROM 50WSW YXC TO 50WNW HVR TO 70NE GGW TO 70SW RAP TO 20WSW BOY TO 70SSW BPI TO 50SE REO TO 30S OED TO 20SSE YDC TO 50WSW YXC MOD ICE BLW 120. CONDS CONTG BYD 15Z THRU 21Z. OTLK VALID 1500-2100Z AREA 1...ICE ID MT WY NV UT WA OR CA BOUNDED BY 30SSW EPH-20SW LWT-50WSW MLS-40E SHR-40ENE MLD-50S FMG-70NE RBL-30SSW EPH MOD ICE BLW 120. CONDS CONTG THRU 21Z. AREA 2...ICE ID MT WY NV UT CO AZ NM CA AND CSTL WTRS BOUNDED BY 80SE MLS-70SW RAP-BFF-30NNW GLD-FTI-50SSW DMN-50S TUS-BZA-20S MZB-200SW MZB-140WSW RZS-130WSW SNS-50S FMG-40ENE MLD-80SE MLS MOD ICE BLW 160. CONDS CONTG THRU 21Z. FRZLVL...RANGING FROM SFC-090 ACRS AREA MULT FRZLVL BLW 040 BOUNDED BY GLD-50W LBL-30ESE TBE-40WSW LAA-GLD SFC ALG 40SSW LAS-30SSE LAS-30NE PHX-60ESE PHX-60SE TUS SFC ALG ELP-20WSW TXO
WAUS43 KKCI 210845 CHIS WA 210845 AIRMET SIERRA UPDT 1 FOR IFR AND MTN OBSCN VALID UNTIL 211500 AIRMET IFR...MO IL IN KY TX AR TN LA MS AL FROM 40S FWA TO CVG TO HNN TO HMV TO GQO TO 60ESE LIT TO 40SSW MLU TO 30N IAH TO 20WSW LIT TO 20NW TTH TO 40S FWA CIG BLW 010/VIS BLW 3SM BR/FG. CONDS CONTG BYD 15Z ENDG 15-18Z. OTLK VALID 1500-2100Z...IFR SD NE BOUNDED BY 50WNW RAP-30NNW ANW-70WSW ANW-SNY-BFF-70SW RAP-50WNW RAP CIG BLW 010/VIS BLW 3SM PCPN/BR. CONDS DVLPG AFT 18Z. CONDS CONTG THRU 21Z.
WAUS44 KKCI 210845 DFWS WA 210845 AIRMET SIERRA UPDT 1 FOR IFR AND MTN OBSCN VALID UNTIL 211500 AIRMET IFR...TX AR TN LA MS AL MO IL IN KY FROM 40S FWA TO CVG TO HNN TO HMV TO GQO TO 60ESE LIT TO 40SSW MLU TO 30N IAH TO 20WSW LIT TO 20NW TTH TO 40S FWA CIG BLW 010/VIS BLW 3SM BR/FG. CONDS CONTG BYD 15Z ENDG 15-18Z.
WAUS46 KKCI 210845 SFOZ WA 210845 AIRMET ZULU UPDT 1 FOR ICE AND FRZLVL VALID UNTIL 211500 AIRMET ICE...WA OR CA ID MT WY NV UT FROM 50WSW YXC TO 50WNW HVR TO 70NE GGW TO 70SW RAP TO 20WSW BOY TO 70SSW BPI TO 50SE REO TO 30S OED TO 20SSE YDC TO 50WSW YXC MOD ICE BLW 120. CONDS CONTG BYD 15Z THRU 21Z. OTLK VALID 1500-2100Z AREA 1...ICE WA OR CA ID MT WY NV UT BOUNDED BY 30SSW EPH-20SW LWT-50WSW MLS-40E SHR-40ENE MLD-50S FMG-70NE RBL-30SSW EPH MOD ICE BLW 120. CONDS CONTG THRU 21Z. AREA 2...ICE CA ID MT WY NV UT CO AZ NM AND CSTL WTRS BOUNDED BY 80SE MLS-70SW RAP-BFF-30NNW GLD-FTI-50SSW DMN-50S TUS-BZA-20S MZB-200SW MZB-140WSW RZS-130WSW SNS-50S FMG-40ENE MLD-80SE MLS MOD ICE BLW 160. CONDS CONTG THRU 21Z. FRZLVL...RANGING FROM SFC-055 ACRS AREA SFC ALG 40NW TOU-30SSE TOU-40ENE FOT-20SSW CZQ-50WNW HEC- 40SSW LAS 040 ALG 150WSW RZS-110SSW RZS-20ENE MZB-50SSW EED-50S EED
WAUS43 KKCI 210845 CHIT WA 210845 AIRMET TANGO UPDT 2 FOR TURB AND LLWS VALID UNTIL 211500 AIRMET TURB...NE KS IA MO WI LM MI LH IL IN OK TX AR FROM 20NW MBS TO 40NE ECK TO 30ENE DXO TO 30ESE IND TO 20NE MLC TO DLF TO 90S MRF TO ELP TO INK TO 30ESE TBE TO 50W LBL TO 30WSW MCK TO 40SW FOD TO 30NNW DBQ TO 20NW MBS MOD TURB BTN FL200 AND FL340. CONDS CONTG BYD 15Z THRU 21Z.
WAUS44 KKCI 210845 DFWT WA 210845 AIRMET TANGO UPDT 1 FOR TURB AND LLWS VALID UNTIL 211500 AIRMET TURB...OK TX AR NE KS IA MO WI LM MI LH IL IN FROM 20NW MBS TO 40NE ECK TO 30ENE DXO TO 30ESE IND TO 20NE MLC TO DLF TO 90S MRF TO ELP TO INK TO 30ESE TBE TO 50W LBL TO 30WSW MCK TO 40SW FOD TO 30NNW DBQ TO 20NW MBS MOD TURB BTN FL200 AND FL340. CONDS CONTG BYD 15Z THRU 21Z. LLWS POTENTIAL...OK TX KS BOUNDED BY 40SW MCK-60ENE HLC-60SW SLN-40E MMB-30NW ABI-60SW LBB- 60SW LBL-40SW MCK LLWS EXP. CONDS CONTG BYD 15Z ENDG 18-21Z. LLWS POTENTIAL...TN AL KY BOUNDED BY 20S HNN-HMV-GQO-20NNW LGC-50NE VUZ-50SE BNA-20S HNN LLWS EXP. CONDS CONTG BYD 15Z ENDG BY 18Z.
WAUS45 KKCI 210845 SLCT WA 210845 AIRMET TANGO UPDT 1 FOR TURB AND LLWS VALID UNTIL 211500 AIRMET TURB...ID NV AZ NM WA OR CA AND CSTL WTRS FROM 30S YXC TO 40WNW BAM TO 40E OAL TO 40NW LAS TO 30SSE PGS TO 20N DMN TO 60SE SSO TO 50S TUS TO BZA TO 20S MZB TO 220SW MZB TO 140WSW FOT TO 110WNW ONP TO 140W TOU TO HUH TO 30S YXC MOD TURB BTN 150 AND FL390. CONDS CONTG BYD 15Z THRU 21Z. OTLK VALID 1500-2100Z AREA 1...TURB ID MT WY NV UT CO AZ NM BOUNDED BY 40WNW DIK-70SW RAP-BFF-50E AKO-20WNW PUB-60SSE RSK- 30S SJN-70NNE TUS-20NW EED-30S BTY-OAL-30SSE BAM-30NNW PIH-60SW BIL-40WNW DIK MOD TURB BTN FL180 AND FL300. CONDS CONTG THRU 21Z. AREA 2...TURB ID MT WY NV UT CO AZ NM WA OR CA AND CSTL WTRS BOUNDED BY 40WNW HUH-50SE YQL-30SSE BAM-OAL-30S BTY-20NW EED- 70NNE TUS-SSO-80SSW SSO-20SSE BZA-30SSW MZB-100WSW RZS-140WSW SNS-90W FOT-70WNW ONP-40WNW HUH MOD TURB BTN 150 AND FL390. CONDS CONTG THRU 21Z.
WAUS46 KKCI 210845 SFOT WA 210845 AIRMET TANGO UPDT 1 FOR TURB AND STG SFC WNDS VALID UNTIL 211500 AIRMET TURB...WA OR CA ID NV AZ NM AND CSTL WTRS FROM 30S YXC TO 40WNW BAM TO 40E OAL TO 40NW LAS TO 30SSE PGS TO 20N DMN TO 60SE SSO TO 50S TUS TO BZA TO 20S MZB TO 220SW MZB TO 140WSW FOT TO 110WNW ONP TO 140W TOU TO HUH TO 30S YXC MOD TURB BTN 150 AND FL390. CONDS CONTG BYD 15Z THRU 21Z. OTLK VALID 1500-2100Z AREA 1...TURB WA OR CA ID MT WY NV UT CO AZ NM AND CSTL WTRS BOUNDED BY 40WNW HUH-50SE YQL-30SSE BAM-OAL-30S BTY-20NW EED- 70NNE TUS-SSO-80SSW SSO-20SSE BZA-30SSW MZB-100WSW RZS-140WSW SNS-90W FOT-70WNW ONP-40WNW HUH MOD TURB BTN 150 AND FL390. CONDS CONTG THRU 21Z. AREA 2...STG SFC WNDS OR CA AND CSTL WTRS BOUNDED BY 120W OED-20WNW FOT-20SSW PYE-50SW RZS-30S MZB-220SW MZB-140WSW FOT-150WNW FOT-120W OED SUSTAINED SURFACE WINDS GTR THAN 30KT EXP. CONDS CONTG THRU 21Z.